Himawari 2 — JG5636 — position and weather

sailwx.info

Track history (hours):
 
Tides and Currents Weather Stations Pressure Air Temp Water Temp Dewpoint Dewpoint Depression Visibility Wind Speed Wind Dir Waves Ship Positions

Himawari 2

Last reported at 2017-Oct-22 04:29 UTC. Time now 2017-Oct-22 04:51 UTC.
Position N 34°30' E 135°11'.

Length 161 m; draft 6.5 m.

Type: Cargo ship. MMSI: 431100957.

Date/timePositionNaut miles runAvg speedWind from/ knotsBaromVisibWave heightAir tempDewpointWater temp
2017-Oct-22 04:29N 34°30' E 135°11'0 0.2
2017-Oct-22 04:00N 34°30' E 135°11'5 9.7
2017-Oct-22 03:30N 34°33' E 135°15'815.8
2017-Oct-22 03:00N 34°38' E 135°23'1 2.7
2017-Oct-22 02:28N 34°37' E 135°25'0 0.0
2017-Oct-22 01:58N 34°37' E 135°25'0 0.0
2017-Oct-22 01:22N 34°37' E 135°25'0 0.0
2017-Oct-22 00:46N 34°37' E 135°25'0 0.0
2017-Oct-22 00:28N 34°37' E 135°25'0 0.0
2017-Oct-21 23:52N 34°37' E 135°25'0 0.0
2017-Oct-21 23:28N 34°37' E 135°25'0 0.0
2017-Oct-21 22:52N 34°37' E 135°25'0 0.0
2017-Oct-21 22:28N 34°37' E 135°25'0 0.2
2017-Oct-21 22:00N 34°37' E 135°25'2 4.5
2017-Oct-21 21:30N 34°38' E 135°22'714.5
2017-Oct-21 21:00N 34°33' E 135°15'815.9
2017-Oct-21 20:30N 34°28' E 135°09'816.0
2017-Oct-21 20:00N 34°21' E 135°03'917.7
2017-Oct-21 19:31N 34°13' E 134°60'1121.3
2017-Oct-21 19:01N 34°02' E 134°60'22819.6
2017-Oct-21 07:23N 34°56' E 139°29'821.9
2017-Oct-21 07:01N 35°02' E 139°36'1020.7
2017-Oct-21 06:30N 35°09' E 139°44'714.1
2017-Oct-21 06:00N 35°16' E 139°46'713.7
2017-Oct-21 05:30N 35°23' E 139°42'1020.3
2017-Oct-21 05:00N 35°30' E 139°51'714.2
2017-Oct-21 04:30N 35°36' E 139°48'0 0.3
2017-Oct-21 04:00N 35°36' E 139°48'0 0.0
2017-Oct-21 03:30N 35°36' E 139°48'0 0.0
2017-Oct-21 03:00N 35°36' E 139°48'0 0.0
2017-Oct-21 02:27N 35°36' E 139°48'0 0.0
2017-Oct-21 02:00N 35°36' E 139°48'0 0.0
2017-Oct-21 01:30N 35°36' E 139°48'0 0.0
2017-Oct-21 01:00N 35°36' E 139°48'1 0.9
2017-Oct-21 00:23N 35°36' E 139°47'613.3
2017-Oct-20 23:57N 35°31' E 139°52'716.2
2017-Oct-20 23:30N 35°25' E 139°47'612.3
2017-Oct-20 23:00N 35°19' E 139°44'611.5
2017-Oct-20 22:30N 35°14' E 139°47'917.7
2017-Oct-20 22:00N 35°05' E 139°47'1020.6
2017-Oct-20 21:30N 34°55' E 139°46'1119.9
2017-Oct-20 20:57N 34°54' E 139°59'1323.5
2017-Oct-20 20:25N 35°00' E 140°12'  
2017-Oct-17 16:50N 34°54' E 140°01'818.1
2017-Oct-17 16:24N 34°51' E 139°52'817.2
2017-Oct-17 15:55N 34°56' E 139°44'819.5
2017-Oct-17 15:30N 35°04' E 139°44'917.9
2017-Oct-17 15:00N 35°13' E 139°46'611.9
2017-Oct-17 14:30N 35°18' E 139°44'714.2
2017-Oct-17 14:01N 35°25' E 139°45'917.6
2017-Oct-17 13:31N 35°33' E 139°51'4 7.8
2017-Oct-17 12:59N 35°36' E 139°48'0 0.0
2017-Oct-17 12:29N 35°36' E 139°48'0 0.0
2017-Oct-17 11:59N 35°36' E 139°48'0 0.0
2017-Oct-17 11:29N 35°36' E 139°48'0 0.0
2017-Oct-17 10:59N 35°36' E 139°48'0 0.0
2017-Oct-17 10:29N 35°36' E 139°48'0 0.0
2017-Oct-17 09:56N 35°36' E 139°48'0 0.0
2017-Oct-17 09:29N 35°36' E 139°48'0 0.0
2017-Oct-17 08:59N 35°36' E 139°48'0 0.0
2017-Oct-17 08:29N 35°36' E 139°48'0 0.0
2017-Oct-17 07:59N 35°36' E 139°48'0 0.0
2017-Oct-17 07:29N 35°36' E 139°48'0 0.1
2017-Oct-17 06:59N 35°36' E 139°48'0 0.1
2017-Oct-17 06:29N 35°36' E 139°48'0 0.0
2017-Oct-17 05:59N 35°36' E 139°48'0 0.0
2017-Oct-17 05:29N 35°36' E 139°48'0 0.1
2017-Oct-17 04:59N 35°36' E 139°48'0 0.1
2017-Oct-17 04:29N 35°36' E 139°48'0 0.0
2017-Oct-17 03:53N 35°36' E 139°48'0 0.0
2017-Oct-17 03:11N 35°36' E 139°48'0 0.0
2017-Oct-17 02:53N 35°36' E 139°48'0 0.0
2017-Oct-17 02:23N 35°36' E 139°48'0 0.0
2017-Oct-17 01:59N 35°36' E 139°48'0 0.0
2017-Oct-17 01:30N 35°36' E 139°48'2 4.3
2017-Oct-17 01:00N 35°34' E 139°49'714.0
2017-Oct-17 00:31N 35°27' E 139°50'713.9
2017-Oct-17 00:01N 35°22' E 139°45'611.4
2017-Oct-16 23:31N 35°16' E 139°46'612.7
2017-Oct-16 23:00N 35°10' E 139°46'1019.1
2017-Oct-16 22:30N 35°01' E 139°41'1020.9
2017-Oct-16 22:00N 34°55' E 139°30'23216.6
2017-Oct-16 08:03N 33°57' E 134°58'124.1
2017-Oct-16 08:00N 33°59' E 134°58'1223.9
2017-Oct-16 07:30N 34°11' E 134°58'1222.8
2017-Oct-16 06:58N 34°22' E 135°01'1123.6
2017-Oct-16 06:30N 34°30' E 135°11'1020.1
2017-Oct-16 06:00N 34°36' E 135°20'4 7.5
2017-Oct-16 05:27N 34°37' E 135°25'0 0.0
2017-Oct-16 04:51N 34°37' E 135°25'0 0.0
2017-Oct-16 04:27N 34°37' E 135°25'0 0.0
2017-Oct-16 03:57N 34°37' E 135°25'0 0.0
2017-Oct-16 03:27N 34°37' E 135°25'0 0.0
2017-Oct-16 02:51N 34°37' E 135°25'0 0.0
2017-Oct-16 02:27N 34°37' E 135°25'0 0.0
2017-Oct-16 01:51N 34°37' E 135°25'0 0.0
2017-Oct-16 01:21N 34°37' E 135°25'0 0.0
2017-Oct-16 00:51N 34°37' E 135°25'0 0.0
2017-Oct-16 00:21N 34°37' E 135°25'0 0.0
2017-Oct-15 23:57N 34°37' E 135°25'0 0.0
2017-Oct-15 23:27N 34°37' E 135°25'0 0.0
2017-Oct-15 22:57N 34°37' E 135°25'0 0.0
2017-Oct-15 22:21N 34°37' E 135°25'0 0.0
2017-Oct-15 21:57N 34°37' E 135°25'0 0.0
2017-Oct-15 21:21N 34°37' E 135°25'0 0.0
2017-Oct-15 20:57N 34°37' E 135°25'0 0.0
2017-Oct-15 20:27N 34°37' E 135°25'0 0.0
2017-Oct-15 19:45N 34°37' E 135°25'0 0.0
2017-Oct-15 19:27N 34°37' E 135°25'0 0.0
2017-Oct-15 18:57N 34°37' E 135°25'0 0.0
2017-Oct-15 18:27N 34°37' E 135°25'0 0.0
2017-Oct-15 17:57N 34°37' E 135°25'0 0.0
2017-Oct-15 17:27N 34°37' E 135°25'0 0.0
2017-Oct-15 16:57N 34°37' E 135°25'0 0.0
2017-Oct-15 16:27N 34°37' E 135°25'0 0.0
2017-Oct-15 15:57N 34°37' E 135°25'0 0.0
2017-Oct-15 15:27N 34°37' E 135°25'0 0.0
2017-Oct-15 14:57N 34°37' E 135°25'0 0.0
2017-Oct-15 13:51N 34°37' E 135°25'0 0.0
2017-Oct-15 13:27N 34°37' E 135°25'0 0.0
2017-Oct-15 12:57N 34°37' E 135°25'0 0.0
2017-Oct-15 12:27N 34°37' E 135°25'0 0.0
2017-Oct-15 11:57N 34°37' E 135°25'0 0.0
2017-Oct-15 11:27N 34°37' E 135°25'0 0.0
2017-Oct-15 10:57N 34°37' E 135°25'0 0.0
2017-Oct-15 10:15N 34°37' E 135°25'0 0.0
2017-Oct-15 09:57N 34°37' E 135°25'0 0.0
2017-Oct-15 09:15N 34°37' E 135°25'0 0.0
2017-Oct-15 08:57N 34°37' E 135°25'0 0.0
2017-Oct-15 08:27N 34°37' E 135°25'0 0.0
2017-Oct-15 07:57N 34°37' E 135°25'0 0.0
2017-Oct-15 07:27N 34°37' E 135°25'0 0.0
2017-Oct-15 06:57N 34°37' E 135°25'0 0.0
2017-Oct-15 06:27N 34°37' E 135°25'0 0.0
2017-Oct-15 05:51N 34°37' E 135°25'0 0.0
2017-Oct-15 05:27N 34°37' E 135°25'0 0.0
2017-Oct-15 04:57N 34°37' E 135°25'0 0.0
2017-Oct-15 04:27N 34°37' E 135°25'0 0.0
2017-Oct-15 03:51N 34°37' E 135°25'0 0.0
2017-Oct-15 03:28N 34°37' E 135°25'0 0.0
2017-Oct-15 03:00N 34°37' E 135°25'0 0.0
2017-Oct-15 02:30N 34°37' E 135°25'0 0.0
2017-Oct-15 02:00N 34°37' E 135°25'3 5.8
2017-Oct-15 01:30N 34°37' E 135°21'918.6
2017-Oct-15 01:00N 34°31' E 135°13'918.8
2017-Oct-15 00:31N 34°24' E 135°06'918.4
2017-Oct-15 00:00N 34°16' E 134°59'919.0
2017-Oct-14 23:30N 34°07' E 135°00'1019.1
2017-Oct-14 22:59N 33°57' E 135°00'22517.4
2017-Oct-14 10:03N 34°53' E 139°25'217.6
2017-Oct-14 09:58N 34°54' E 139°26'817.7
2017-Oct-14 09:30N 34°60' E 139°34'1019.9
2017-Oct-14 09:00N 35°07' E 139°42'816.7
2017-Oct-14 08:30N 35°14' E 139°46'612.2
2017-Oct-14 08:01N 35°20' E 139°43'611.7
2017-Oct-14 07:31N 35°25' E 139°44'918.6
2017-Oct-14 07:00N 35°33' E 139°51'4 7.5
2017-Oct-14 06:28N 35°36' E 139°48'0 0.0
2017-Oct-14 05:58N 35°36' E 139°48'0 0.1
2017-Oct-14 05:25N 35°36' E 139°48'0 0.1
2017-Oct-14 04:55N 35°36' E 139°48'0 0.0
2017-Oct-14 04:25N 35°36' E 139°48'0 0.0
2017-Oct-14 03:55N 35°36' E 139°48'0 0.1
2017-Oct-14 03:28N 35°36' E 139°48'0 0.1
2017-Oct-14 02:55N 35°36' E 139°48'0 0.1
2017-Oct-14 02:28N 35°36' E 139°48'0 0.1
2017-Oct-14 01:55N 35°36' E 139°48'0 0.0
2017-Oct-14 01:28N 35°36' E 139°48'0 0.0
2017-Oct-14 01:00N 35°36' E 139°48'0 0.0
2017-Oct-14 00:30N 35°36' E 139°48'1 2.4
2017-Oct-14 00:00N 35°35' E 139°47'714.6
2017-Oct-13 23:30N 35°29' E 139°52'815.4
2017-Oct-13 23:00N 35°23' E 139°46'611.8
2017-Oct-13 22:30N 35°17' E 139°45'612.2
2017-Oct-13 22:01N 35°11' E 139°47'917.6
2017-Oct-13 21:30N 35°02' E 139°45'815.7
2017-Oct-13 21:00N 34°55' E 139°46'1120.4
2017-Oct-13 20:28N 34°53' E 139°59'2023.7
2017-Oct-13 19:37N 35°04' E 140°20'  
Track history (hours):
 
Tides and Currents Weather Stations Pressure Air Temp Water Temp Dewpoint Dewpoint Depression Visibility Wind Speed Wind Dir Waves Ship Positions

Himawari 2

Last reported at 2017-Oct-22 04:29 UTC. Time now 2017-Oct-22 04:51 UTC.
Position N 34°30' E 135°11'.

Length 161 m; draft 6.5 m.

Type: Cargo ship. MMSI: 431100957.

Date/timePositionNaut miles runAvg speedWind from/ knotsBaromVisibWave heightAir tempDewpointWater temp
2017-Oct-22 04:29N 34°30' E 135°11'0 0.2
2017-Oct-22 04:00N 34°30' E 135°11'5 9.7
2017-Oct-22 03:30N 34°33' E 135°15'815.8
2017-Oct-22 03:00N 34°38' E 135°23'1 2.7
2017-Oct-22 02:28N 34°37' E 135°25'0 0.0
2017-Oct-22 01:58N 34°37' E 135°25'0 0.0
2017-Oct-22 01:22N 34°37' E 135°25'0 0.0
2017-Oct-22 00:46N 34°37' E 135°25'0 0.0
2017-Oct-22 00:28N 34°37' E 135°25'0 0.0
2017-Oct-21 23:52N 34°37' E 135°25'0 0.0
2017-Oct-21 23:28N 34°37' E 135°25'0 0.0
2017-Oct-21 22:52N 34°37' E 135°25'0 0.0
2017-Oct-21 22:28N 34°37' E 135°25'0 0.2
2017-Oct-21 22:00N 34°37' E 135°25'2 4.5
2017-Oct-21 21:30N 34°38' E 135°22'714.5
2017-Oct-21 21:00N 34°33' E 135°15'815.9
2017-Oct-21 20:30N 34°28' E 135°09'816.0
2017-Oct-21 20:00N 34°21' E 135°03'917.7
2017-Oct-21 19:31N 34°13' E 134°60'1121.3
2017-Oct-21 19:01N 34°02' E 134°60'22819.6
2017-Oct-21 07:23N 34°56' E 139°29'821.9
2017-Oct-21 07:01N 35°02' E 139°36'1020.7
2017-Oct-21 06:30N 35°09' E 139°44'714.1
2017-Oct-21 06:00N 35°16' E 139°46'713.7
2017-Oct-21 05:30N 35°23' E 139°42'1020.3
2017-Oct-21 05:00N 35°30' E 139°51'714.2
2017-Oct-21 04:30N 35°36' E 139°48'0 0.3
2017-Oct-21 04:00N 35°36' E 139°48'0 0.0
2017-Oct-21 03:30N 35°36' E 139°48'0 0.0
2017-Oct-21 03:00N 35°36' E 139°48'0 0.0
2017-Oct-21 02:27N 35°36' E 139°48'0 0.0
2017-Oct-21 02:00N 35°36' E 139°48'0 0.0
2017-Oct-21 01:30N 35°36' E 139°48'0 0.0
2017-Oct-21 01:00N 35°36' E 139°48'1 0.9
2017-Oct-21 00:23N 35°36' E 139°47'613.3
2017-Oct-20 23:57N 35°31' E 139°52'716.2
2017-Oct-20 23:30N 35°25' E 139°47'612.3
2017-Oct-20 23:00N 35°19' E 139°44'611.5
2017-Oct-20 22:30N 35°14' E 139°47'917.7
2017-Oct-20 22:00N 35°05' E 139°47'1020.6
2017-Oct-20 21:30N 34°55' E 139°46'1119.9
2017-Oct-20 20:57N 34°54' E 139°59'1323.5
2017-Oct-20 20:25N 35°00' E 140°12'  
2017-Oct-17 16:50N 34°54' E 140°01'818.1
2017-Oct-17 16:24N 34°51' E 139°52'817.2
2017-Oct-17 15:55N 34°56' E 139°44'819.5
2017-Oct-17 15:30N 35°04' E 139°44'917.9
2017-Oct-17 15:00N 35°13' E 139°46'611.9
2017-Oct-17 14:30N 35°18' E 139°44'714.2
2017-Oct-17 14:01N 35°25' E 139°45'917.6
2017-Oct-17 13:31N 35°33' E 139°51'4 7.8
2017-Oct-17 12:59N 35°36' E 139°48'0 0.0
2017-Oct-17 12:29N 35°36' E 139°48'0 0.0
2017-Oct-17 11:59N 35°36' E 139°48'0 0.0
2017-Oct-17 11:29N 35°36' E 139°48'0 0.0
2017-Oct-17 10:59N 35°36' E 139°48'0 0.0
2017-Oct-17 10:29N 35°36' E 139°48'0 0.0
2017-Oct-17 09:56N 35°36' E 139°48'0 0.0
2017-Oct-17 09:29N 35°36' E 139°48'0 0.0
2017-Oct-17 08:59N 35°36' E 139°48'0 0.0
2017-Oct-17 08:29N 35°36' E 139°48'0 0.0
2017-Oct-17 07:59N 35°36' E 139°48'0 0.0
2017-Oct-17 07:29N 35°36' E 139°48'0 0.1
2017-Oct-17 06:59N 35°36' E 139°48'0 0.1
2017-Oct-17 06:29N 35°36' E 139°48'0 0.0
2017-Oct-17 05:59N 35°36' E 139°48'0 0.0
2017-Oct-17 05:29N 35°36' E 139°48'0 0.1
2017-Oct-17 04:59N 35°36' E 139°48'0 0.1
2017-Oct-17 04:29N 35°36' E 139°48'0 0.0
2017-Oct-17 03:53N 35°36' E 139°48'0 0.0
2017-Oct-17 03:11N 35°36' E 139°48'0 0.0
2017-Oct-17 02:53N 35°36' E 139°48'0 0.0
2017-Oct-17 02:23N 35°36' E 139°48'0 0.0
2017-Oct-17 01:59N 35°36' E 139°48'0 0.0
2017-Oct-17 01:30N 35°36' E 139°48'2 4.3
2017-Oct-17 01:00N 35°34' E 139°49'714.0
2017-Oct-17 00:31N 35°27' E 139°50'713.9
2017-Oct-17 00:01N 35°22' E 139°45'611.4
2017-Oct-16 23:31N 35°16' E 139°46'612.7
2017-Oct-16 23:00N 35°10' E 139°46'1019.1
2017-Oct-16 22:30N 35°01' E 139°41'1020.9
2017-Oct-16 22:00N 34°55' E 139°30'23216.6
2017-Oct-16 08:03N 33°57' E 134°58'124.1
2017-Oct-16 08:00N 33°59' E 134°58'1223.9
2017-Oct-16 07:30N 34°11' E 134°58'1222.8
2017-Oct-16 06:58N 34°22' E 135°01'1123.6
2017-Oct-16 06:30N 34°30' E 135°11'1020.1
2017-Oct-16 06:00N 34°36' E 135°20'4 7.5
2017-Oct-16 05:27N 34°37' E 135°25'0 0.0
2017-Oct-16 04:51N 34°37' E 135°25'0 0.0
2017-Oct-16 04:27N 34°37' E 135°25'0 0.0
2017-Oct-16 03:57N 34°37' E 135°25'0 0.0
2017-Oct-16 03:27N 34°37' E 135°25'0 0.0
2017-Oct-16 02:51N 34°37' E 135°25'0 0.0
2017-Oct-16 02:27N 34°37' E 135°25'0 0.0
2017-Oct-16 01:51N 34°37' E 135°25'0 0.0
2017-Oct-16 01:21N 34°37' E 135°25'0 0.0
2017-Oct-16 00:51N 34°37' E 135°25'0 0.0
2017-Oct-16 00:21N 34°37' E 135°25'0 0.0
2017-Oct-15 23:57N 34°37' E 135°25'0 0.0
2017-Oct-15 23:27N 34°37' E 135°25'0 0.0
2017-Oct-15 22:57N 34°37' E 135°25'0 0.0
2017-Oct-15 22:21N 34°37' E 135°25'0 0.0
2017-Oct-15 21:57N 34°37' E 135°25'0 0.0
2017-Oct-15 21:21N 34°37' E 135°25'0 0.0
2017-Oct-15 20:57N 34°37' E 135°25'0 0.0
2017-Oct-15 20:27N 34°37' E 135°25'0 0.0
2017-Oct-15 19:45N 34°37' E 135°25'0 0.0
2017-Oct-15 19:27N 34°37' E 135°25'0 0.0
2017-Oct-15 18:57N 34°37' E 135°25'0 0.0
2017-Oct-15 18:27N 34°37' E 135°25'0 0.0
2017-Oct-15 17:57N 34°37' E 135°25'0 0.0
2017-Oct-15 17:27N 34°37' E 135°25'0 0.0
2017-Oct-15 16:57N 34°37' E 135°25'0 0.0
2017-Oct-15 16:27N 34°37' E 135°25'0 0.0
2017-Oct-15 15:57N 34°37' E 135°25'0 0.0
2017-Oct-15 15:27N 34°37' E 135°25'0 0.0
2017-Oct-15 14:57N 34°37' E 135°25'0 0.0
2017-Oct-15 13:51N 34°37' E 135°25'0 0.0
2017-Oct-15 13:27N 34°37' E 135°25'0 0.0
2017-Oct-15 12:57N 34°37' E 135°25'0 0.0
2017-Oct-15 12:27N 34°37' E 135°25'0 0.0
2017-Oct-15 11:57N 34°37' E 135°25'0 0.0
2017-Oct-15 11:27N 34°37' E 135°25'0 0.0
2017-Oct-15 10:57N 34°37' E 135°25'0 0.0
2017-Oct-15 10:15N 34°37' E 135°25'0 0.0
2017-Oct-15 09:57N 34°37' E 135°25'0 0.0
2017-Oct-15 09:15N 34°37' E 135°25'0 0.0
2017-Oct-15 08:57N 34°37' E 135°25'0 0.0
2017-Oct-15 08:27N 34°37' E 135°25'0 0.0
2017-Oct-15 07:57N 34°37' E 135°25'0 0.0
2017-Oct-15 07:27N 34°37' E 135°25'0 0.0
2017-Oct-15 06:57N 34°37' E 135°25'0 0.0
2017-Oct-15 06:27N 34°37' E 135°25'0 0.0
2017-Oct-15 05:51N 34°37' E 135°25'0 0.0
2017-Oct-15 05:27N 34°37' E 135°25'0 0.0
2017-Oct-15 04:57N 34°37' E 135°25'0 0.0
2017-Oct-15 04:27N 34°37' E 135°25'0 0.0
2017-Oct-15 03:51N 34°37' E 135°25'0 0.0
2017-Oct-15 03:28N 34°37' E 135°25'0 0.0
2017-Oct-15 03:00N 34°37' E 135°25'0 0.0
2017-Oct-15 02:30N 34°37' E 135°25'0 0.0
2017-Oct-15 02:00N 34°37' E 135°25'3 5.8
2017-Oct-15 01:30N 34°37' E 135°21'918.6
2017-Oct-15 01:00N 34°31' E 135°13'918.8
2017-Oct-15 00:31N 34°24' E 135°06'918.4
2017-Oct-15 00:00N 34°16' E 134°59'919.0
2017-Oct-14 23:30N 34°07' E 135°00'1019.1
2017-Oct-14 22:59N 33°57' E 135°00'22517.4
2017-Oct-14 10:03N 34°53' E 139°25'217.6
2017-Oct-14 09:58N 34°54' E 139°26'817.7
2017-Oct-14 09:30N 34°60' E 139°34'1019.9
2017-Oct-14 09:00N 35°07' E 139°42'816.7
2017-Oct-14 08:30N 35°14' E 139°46'612.2
2017-Oct-14 08:01N 35°20' E 139°43'611.7
2017-Oct-14 07:31N 35°25' E 139°44'918.6
2017-Oct-14 07:00N 35°33' E 139°51'4 7.5
2017-Oct-14 06:28N 35°36' E 139°48'0 0.0
2017-Oct-14 05:58N 35°36' E 139°48'0 0.1
2017-Oct-14 05:25N 35°36' E 139°48'0 0.1
2017-Oct-14 04:55N 35°36' E 139°48'0 0.0
2017-Oct-14 04:25N 35°36' E 139°48'0 0.0
2017-Oct-14 03:55N 35°36' E 139°48'0 0.1
2017-Oct-14 03:28N 35°36' E 139°48'0 0.1
2017-Oct-14 02:55N 35°36' E 139°48'0 0.1
2017-Oct-14 02:28N 35°36' E 139°48'0 0.1
2017-Oct-14 01:55N 35°36' E 139°48'0 0.0
2017-Oct-14 01:28N 35°36' E 139°48'0 0.0
2017-Oct-14 01:00N 35°36' E 139°48'0 0.0
2017-Oct-14 00:30N 35°36' E 139°48'1 2.4
2017-Oct-14 00:00N 35°35' E 139°47'714.6
2017-Oct-13 23:30N 35°29' E 139°52'815.4
2017-Oct-13 23:00N 35°23' E 139°46'611.8
2017-Oct-13 22:30N 35°17' E 139°45'612.2
2017-Oct-13 22:01N 35°11' E 139°47'917.6
2017-Oct-13 21:30N 35°02' E 139°45'815.7
2017-Oct-13 21:00N 34°55' E 139°46'1120.4
2017-Oct-13 20:28N 34°53' E 139°59'2023.7
2017-Oct-13 19:37N 35°04' E 140°20'  

Dump ship's entire track history